< < Back
Terminal Aerodrome Forecast


Current Version              Previous Versions:   1  2  3  4  5  6  7  8  9  

Terminal Aerodrome Forecast

020
FTUS44 KMOB 270525
TAFPNS
TAF
KPNS 270525Z 2706/2806 08005KT P6SM VCSH BKN010 BKN200
     FM270900 13004KT 6SM BR VCSH BKN015 BKN100
     FM271400 13005KT P6SM VCSH SCT030 BKN100 PROB30 2718/2721 P6SM
      TS BKN050CB=

Latest METAR

395
SAUS70 KWBC 280200 RRE
MTRPNS
METAR KPNS 280153Z 00000KT 10SM FEW015 24/23 A3013 RMK AO2 LTG DSNT W
AND NW SLP202 T02390228


USA.gov is the U.S. government's official web portal to all federal, state and local government web resources and services.